sensor_id;sensor_type;location;lat;lon;timestamp;P1;durP1;ratioP1;P2;durP2;ratioP2
29380;SDS011;16364;52.490;13.326;2023-02-01T00:01:12;14.97;;;2.47;;
29380;SDS011;16364;52.490;13.326;2023-02-01T00:03:38;8.33;;;2.27;;
29380;SDS011;16364;52.490;13.326;2023-02-01T00:06:03;12.77;;;2.53;;
29380;SDS011;16364;52.490;13.326;2023-02-01T00:08:28;19.43;;;3.10;;
29380;SDS011;16364;52.490;13.326;2023-02-01T00:11:00;14.63;;;2.60;;
29380;SDS011;16364;52.490;13.326;2023-02-01T00:13:27;12.70;;;3.50;;
29380;SDS011;16364;52.490;13.326;2023-02-01T00:15:53;16.30;;;2.93;;
29380;SDS011;16364;52.490;13.326;2023-02-01T00:18:18;9.80;;;2.33;;
29380;SDS011;16364;52.490;13.326;2023-02-01T00:20:46;21.17;;;2.60;;
29380;SDS011;16364;52.490;13.326;2023-02-01T00:23:11;27.33;;;3.67;;
29380;SDS011;16364;52.490;13.326;2023-02-01T00:25:37;12.07;;;2.63;;
29380;SDS011;16364;52.490;13.326;2023-02-01T00:28:02;19.13;;;3.30;;
29380;SDS011;16364;52.490;13.326;2023-02-01T00:30:27;6.87;;;2.93;;
29380;SDS011;16364;52.490;13.326;2023-02-01T00:32:52;13.33;;;3.40;;
29380;SDS011;16364;52.490;13.326;2023-02-01T00:35:17;17.90;;;2.67;;
29380;SDS011;16364;52.490;13.326;2023-02-01T00:37:43;9.10;;;2.77;;
29380;SDS011;16364;52.490;13.326;2023-02-01T00:40:08;11.43;;;2.50;;
29380;SDS011;16364;52.490;13.326;2023-02-01T00:42:34;13.20;;;2.10;;
29380;SDS011;16364;52.490;13.326;2023-02-01T00:44:59;15.47;;;2.93;;
29380;SDS011;16364;52.490;13.326;2023-02-01T00:47:24;10.57;;;2.00;;
29380;SDS011;16364;52.490;13.326;2023-02-01T00:49:49;12.57;;;2.70;;
29380;SDS011;16364;52.490;13.326;2023-02-01T00:52:14;9.70;;;2.97;;
29380;SDS011;16364;52.490;13.326;2023-02-01T00:54:40;12.53;;;2.70;;
29380;SDS011;16364;52.490;13.326;2023-02-01T00:57:05;5.67;;;2.67;;
29380;SDS011;16364;52.490;13.326;2023-02-01T00:59:30;9.73;;;2.33;;
29380;SDS011;16364;52.490;13.326;2023-02-01T01:01:56;7.90;;;1.90;;
29380;SDS011;16364;52.490;13.326;2023-02-01T01:04:21;13.73;;;2.47;;
29380;SDS011;16364;52.490;13.326;2023-02-01T01:06:46;10.40;;;2.00;;
29380;SDS011;16364;52.490;13.326;2023-02-01T01:09:11;8.97;;;2.53;;
29380;SDS011;16364;52.490;13.326;2023-02-01T01:11:37;10.80;;;1.90;;
29380;SDS011;16364;52.490;13.326;2023-02-01T01:14:03;10.27;;;2.87;;
29380;SDS011;16364;52.490;13.326;2023-02-01T01:16:30;9.40;;;2.40;;
29380;SDS011;16364;52.490;13.326;2023-02-01T01:18:55;7.53;;;2.23;;
29380;SDS011;16364;52.490;13.326;2023-02-01T01:21:21;13.97;;;2.57;;
29380;SDS011;16364;52.490;13.326;2023-02-01T01:23:46;6.70;;;2.03;;
29380;SDS011;16364;52.490;13.326;2023-02-01T01:26:13;10.23;;;2.23;;
29380;SDS011;16364;52.490;13.326;2023-02-01T01:28:39;6.73;;;1.50;;
29380;SDS011;16364;52.490;13.326;2023-02-01T01:31:07;11.10;;;2.63;;
29380;SDS011;16364;52.490;13.326;2023-02-01T01:33:33;6.90;;;2.07;;
29380;SDS011;16364;52.490;13.326;2023-02-01T01:35:58;11.47;;;2.47;;
29380;SDS011;16364;52.490;13.326;2023-02-01T01:38:23;5.90;;;1.90;;
29380;SDS011;16364;52.490;13.326;2023-02-01T01:40:48;9.37;;;2.70;;
29380;SDS011;16364;52.490;13.326;2023-02-01T01:43:17;19.70;;;2.87;;
29380;SDS011;16364;52.490;13.326;2023-02-01T01:45:42;15.80;;;2.40;;
29380;SDS011;16364;52.490;13.326;2023-02-01T01:48:19;10.50;;;1.70;;
29380;SDS011;16364;52.490;13.326;2023-02-01T01:50:46;12.00;;;2.50;;
29380;SDS011;16364;52.490;13.326;2023-02-01T01:53:13;10.33;;;2.33;;
29380;SDS011;16364;52.490;13.326;2023-02-01T01:55:41;9.80;;;2.10;;
29380;SDS011;16364;52.490;13.326;2023-02-01T01:58:09;21.57;;;3.40;;
29380;SDS011;16364;52.490;13.326;2023-02-01T02:00:35;5.60;;;2.47;;
29380;SDS011;16364;52.490;13.326;2023-02-01T02:03:03;7.43;;;2.10;;
29380;SDS011;16364;52.490;13.326;2023-02-01T02:05:31;11.13;;;1.83;;
29380;SDS011;16364;52.490;13.326;2023-02-01T02:07:57;8.77;;;2.90;;
29380;SDS011;16364;52.490;13.326;2023-02-01T02:10:23;11.80;;;2.30;;
29380;SDS011;16364;52.490;13.326;2023-02-01T02:13:08;7.67;;;1.63;;
29380;SDS011;16364;52.490;13.326;2023-02-01T02:15:34;7.10;;;1.63;;
29380;SDS011;16364;52.490;13.326;2023-02-01T02:18:04;9.97;;;2.50;;
29380;SDS011;16364;52.490;13.326;2023-02-01T02:23:16;13.47;;;2.97;;
29380;SDS011;16364;52.490;13.326;2023-02-01T02:36:15;11.20;;;2.67;;
29380;SDS011;16364;52.490;13.326;2023-02-01T02:41:31;6.77;;;2.00;;
29380;SDS011;16364;52.490;13.326;2023-02-01T02:44:21;14.90;;;3.03;;
29380;SDS011;16364;52.490;13.326;2023-02-01T02:47:10;8.30;;;2.60;;
29380;SDS011;16364;52.490;13.326;2023-02-01T02:50:02;17.77;;;2.30;;
29380;SDS011;16364;52.490;13.326;2023-02-01T02:52:51;13.10;;;1.77;;
29380;SDS011;16364;52.490;13.326;2023-02-01T02:55:38;10.83;;;2.67;;
29380;SDS011;16364;52.490;13.326;2023-02-01T02:58:05;13.73;;;2.60;;
29380;SDS011;16364;52.490;13.326;2023-02-01T03:00:49;11.63;;;4.73;;
29380;SDS011;16364;52.490;13.326;2023-02-01T03:03:36;13.43;;;3.50;;
29380;SDS011;16364;52.490;13.326;2023-02-01T03:06:22;9.03;;;2.27;;
29380;SDS011;16364;52.490;13.326;2023-02-01T03:08:47;11.93;;;2.40;;
29380;SDS011;16364;52.490;13.326;2023-02-01T03:11:13;16.83;;;3.03;;
29380;SDS011;16364;52.490;13.326;2023-02-01T03:13:47;15.10;;;2.03;;
29380;SDS011;16364;52.490;13.326;2023-02-01T03:21:13;21.70;;;3.17;;
29380;SDS011;16364;52.490;13.326;2023-02-01T03:23:39;12.13;;;2.17;;
29380;SDS011;16364;52.490;13.326;2023-02-01T03:26:10;13.13;;;3.80;;
29380;SDS011;16364;52.490;13.326;2023-02-01T03:28:36;11.93;;;2.90;;
29380;SDS011;16364;52.490;13.326;2023-02-01T03:31:02;4.60;;;1.97;;
29380;SDS011;16364;52.490;13.326;2023-02-01T03:33:27;12.63;;;2.20;;
29380;SDS011;16364;52.490;13.326;2023-02-01T03:46:17;9.63;;;3.50;;
29380;SDS011;16364;52.490;13.326;2023-02-01T03:48:44;12.37;;;2.70;;
29380;SDS011;16364;52.490;13.326;2023-02-01T03:51:09;10.47;;;2.03;;
29380;SDS011;16364;52.490;13.326;2023-02-01T03:53:35;12.97;;;2.23;;
29380;SDS011;16364;52.490;13.326;2023-02-01T03:56:01;13.90;;;3.00;;
29380;SDS011;16364;52.490;13.326;2023-02-01T03:58:27;10.97;;;2.50;;
29380;SDS011;16364;52.490;13.326;2023-02-01T04:00:56;9.70;;;2.53;;
29380;SDS011;16364;52.490;13.326;2023-02-01T04:03:22;9.47;;;2.50;;
29380;SDS011;16364;52.490;13.326;2023-02-01T04:05:48;8.77;;;2.33;;
29380;SDS011;16364;52.490;13.326;2023-02-01T04:08:13;10.80;;;2.80;;
29380;SDS011;16364;52.490;13.326;2023-02-01T04:10:39;16.50;;;2.93;;
29380;SDS011;16364;52.490;13.326;2023-02-01T04:13:04;9.03;;;3.00;;
29380;SDS011;16364;52.490;13.326;2023-02-01T04:15:29;11.57;;;2.60;;
29380;SDS011;16364;52.490;13.326;2023-02-01T04:17:55;8.40;;;2.60;;
29380;SDS011;16364;52.490;13.326;2023-02-01T04:20:20;8.93;;;2.67;;
29380;SDS011;16364;52.490;13.326;2023-02-01T04:22:45;12.30;;;2.10;;
29380;SDS011;16364;52.490;13.326;2023-02-01T04:25:10;13.10;;;2.47;;
29380;SDS011;16364;52.490;13.326;2023-02-01T04:27:36;10.50;;;2.07;;
29380;SDS011;16364;52.490;13.326;2023-02-01T04:30:01;19.90;;;2.67;;
29380;SDS011;16364;52.490;13.326;2023-02-01T04:32:27;11.57;;;2.77;;
29380;SDS011;16364;52.490;13.326;2023-02-01T04:34:52;9.30;;;2.60;;
29380;SDS011;16364;52.490;13.326;2023-02-01T04:37:17;14.73;;;2.87;;
29380;SDS011;16364;52.490;13.326;2023-02-01T04:39:42;12.47;;;2.67;;
29380;SDS011;16364;52.490;13.326;2023-02-01T04:42:08;15.80;;;2.37;;
29380;SDS011;16364;52.490;13.326;2023-02-01T04:44:33;8.77;;;2.07;;
29380;SDS011;16364;52.490;13.326;2023-02-01T04:46:59;8.50;;;2.67;;
29380;SDS011;16364;52.490;13.326;2023-02-01T04:49:24;16.73;;;2.93;;
29380;SDS011;16364;52.490;13.326;2023-02-01T04:51:51;12.57;;;2.63;;
29380;SDS011;16364;52.490;13.326;2023-02-01T04:54:16;11.60;;;2.60;;
29380;SDS011;16364;52.490;13.326;2023-02-01T04:56:42;13.33;;;2.53;;
29380;SDS011;16364;52.490;13.326;2023-02-01T04:59:07;25.60;;;4.30;;
29380;SDS011;16364;52.490;13.326;2023-02-01T05:01:32;12.23;;;3.83;;
29380;SDS011;16364;52.490;13.326;2023-02-01T05:03:57;8.90;;;2.33;;
29380;SDS011;16364;52.490;13.326;2023-02-01T05:06:23;16.00;;;3.07;;
29380;SDS011;16364;52.490;13.326;2023-02-01T05:08:48;11.60;;;2.40;;
29380;SDS011;16364;52.490;13.326;2023-02-01T05:11:13;10.53;;;2.80;;
29380;SDS011;16364;52.490;13.326;2023-02-01T05:13:58;10.10;;;2.70;;
29380;SDS011;16364;52.490;13.326;2023-02-01T05:16:24;19.93;;;3.10;;
29380;SDS011;16364;52.490;13.326;2023-02-01T05:18:49;7.67;;;2.50;;
29380;SDS011;16364;52.490;13.326;2023-02-01T05:21:14;18.53;;;3.20;;
29380;SDS011;16364;52.490;13.326;2023-02-01T05:23:39;13.30;;;4.13;;
29380;SDS011;16364;52.490;13.326;2023-02-01T05:26:23;10.70;;;2.07;;
29380;SDS011;16364;52.490;13.326;2023-02-01T05:28:48;17.23;;;3.63;;
29380;SDS011;16364;52.490;13.326;2023-02-01T05:31:14;12.80;;;2.60;;
29380;SDS011;16364;52.490;13.326;2023-02-01T05:33:39;13.03;;;2.87;;
29380;SDS011;16364;52.490;13.326;2023-02-01T05:36:04;12.10;;;3.30;;
29380;SDS011;16364;52.490;13.326;2023-02-01T05:38:29;9.17;;;2.23;;
29380;SDS011;16364;52.490;13.326;2023-02-01T05:40:55;9.30;;;2.73;;
29380;SDS011;16364;52.490;13.326;2023-02-01T05:43:20;20.43;;;4.37;;
29380;SDS011;16364;52.490;13.326;2023-02-01T05:45:45;17.27;;;3.40;;
29380;SDS011;16364;52.490;13.326;2023-02-01T05:48:11;10.60;;;2.83;;
29380;SDS011;16364;52.490;13.326;2023-02-01T05:50:36;17.30;;;2.60;;
29380;SDS011;16364;52.490;13.326;2023-02-01T05:53:01;21.10;;;4.47;;
29380;SDS011;16364;52.490;13.326;2023-02-01T05:55:26;11.07;;;3.40;;
29380;SDS011;16364;52.490;13.326;2023-02-01T05:57:51;12.10;;;2.40;;
29380;SDS011;16364;52.490;13.326;2023-02-01T06:00:17;16.80;;;3.93;;
29380;SDS011;16364;52.490;13.326;2023-02-01T06:02:42;11.07;;;2.37;;
29380;SDS011;16364;52.490;13.326;2023-02-01T06:05:08;12.13;;;2.93;;
29380;SDS011;16364;52.490;13.326;2023-02-01T06:07:34;18.43;;;4.40;;
29380;SDS011;16364;52.490;13.326;2023-02-01T06:09:59;10.27;;;3.20;;
29380;SDS011;16364;52.490;13.326;2023-02-01T06:12:24;12.90;;;3.10;;
29380;SDS011;16364;52.490;13.326;2023-02-01T06:14:49;14.53;;;2.80;;
29380;SDS011;16364;52.490;13.326;2023-02-01T06:17:15;13.80;;;3.10;;
29380;SDS011;16364;52.490;13.326;2023-02-01T06:19:40;9.30;;;2.80;;
29380;SDS011;16364;52.490;13.326;2023-02-01T06:22:05;8.90;;;3.77;;
29380;SDS011;16364;52.490;13.326;2023-02-01T06:24:31;14.87;;;2.63;;
29380;SDS011;16364;52.490;13.326;2023-02-01T06:26:56;20.03;;;2.67;;
29380;SDS011;16364;52.490;13.326;2023-02-01T06:29:21;11.97;;;3.40;;
29380;SDS011;16364;52.490;13.326;2023-02-01T06:31:47;12.07;;;3.20;;
29380;SDS011;16364;52.490;13.326;2023-02-01T06:34:12;12.03;;;3.40;;
29380;SDS011;16364;52.490;13.326;2023-02-01T06:36:37;13.27;;;3.60;;
29380;SDS011;16364;52.490;13.326;2023-02-01T06:39:03;13.90;;;2.83;;
29380;SDS011;16364;52.490;13.326;2023-02-01T06:41:29;17.97;;;3.40;;
29380;SDS011;16364;52.490;13.326;2023-02-01T06:43:54;11.13;;;3.00;;
29380;SDS011;16364;52.490;13.326;2023-02-01T06:46:20;12.60;;;3.63;;
29380;SDS011;16364;52.490;13.326;2023-02-01T06:48:45;9.10;;;2.73;;
29380;SDS011;16364;52.490;13.326;2023-02-01T06:51:17;18.33;;;3.37;;
29380;SDS011;16364;52.490;13.326;2023-02-01T06:53:43;12.20;;;2.93;;
29380;SDS011;16364;52.490;13.326;2023-02-01T06:56:08;9.07;;;2.47;;
29380;SDS011;16364;52.490;13.326;2023-02-01T06:58:33;10.33;;;2.67;;
29380;SDS011;16364;52.490;13.326;2023-02-01T07:01:05;16.57;;;2.90;;
29380;SDS011;16364;52.490;13.326;2023-02-01T07:03:30;15.43;;;4.03;;
29380;SDS011;16364;52.490;13.326;2023-02-01T07:05:56;9.90;;;2.27;;
29380;SDS011;16364;52.490;13.326;2023-02-01T07:08:24;10.97;;;2.50;;
29380;SDS011;16364;52.490;13.326;2023-02-01T07:10:49;11.33;;;2.97;;
29380;SDS011;16364;52.490;13.326;2023-02-01T07:13:14;9.27;;;2.80;;
29380;SDS011;16364;52.490;13.326;2023-02-01T07:15:39;12.70;;;2.87;;
29380;SDS011;16364;52.490;13.326;2023-02-01T07:18:04;9.80;;;2.83;;
29380;SDS011;16364;52.490;13.326;2023-02-01T07:20:30;20.13;;;3.83;;
29380;SDS011;16364;52.490;13.326;2023-02-01T07:22:56;7.57;;;4.13;;
29380;SDS011;16364;52.490;13.326;2023-02-01T07:25:21;10.10;;;2.70;;
29380;SDS011;16364;52.490;13.326;2023-02-01T07:27:47;8.10;;;2.17;;
29380;SDS011;16364;52.490;13.326;2023-02-01T07:30:12;12.07;;;3.03;;
29380;SDS011;16364;52.490;13.326;2023-02-01T07:32:37;14.30;;;3.10;;
29380;SDS011;16364;52.490;13.326;2023-02-01T07:35:02;7.40;;;2.87;;
29380;SDS011;16364;52.490;13.326;2023-02-01T07:37:28;6.07;;;3.37;;
29380;SDS011;16364;52.490;13.326;2023-02-01T07:39:54;10.70;;;2.27;;
29380;SDS011;16364;52.490;13.326;2023-02-01T07:42:19;13.53;;;3.53;;
29380;SDS011;16364;52.490;13.326;2023-02-01T07:44:45;11.07;;;3.20;;
29380;SDS011;16364;52.490;13.326;2023-02-01T07:47:10;13.03;;;2.77;;
29380;SDS011;16364;52.490;13.326;2023-02-01T07:49:35;15.73;;;3.67;;
29380;SDS011;16364;52.490;13.326;2023-02-01T07:52:00;15.80;;;4.73;;
29380;SDS011;16364;52.490;13.326;2023-02-01T07:54:26;10.73;;;3.43;;
29380;SDS011;16364;52.490;13.326;2023-02-01T07:56:52;12.23;;;3.60;;
29380;SDS011;16364;52.490;13.326;2023-02-01T07:59:17;12.53;;;3.90;;
29380;SDS011;16364;52.490;13.326;2023-02-01T08:01:42;9.10;;;3.40;;
29380;SDS011;16364;52.490;13.326;2023-02-01T08:04:09;10.07;;;3.37;;
29380;SDS011;16364;52.490;13.326;2023-02-01T08:06:35;7.73;;;3.80;;
29380;SDS011;16364;52.490;13.326;2023-02-01T08:09:00;16.63;;;3.67;;
29380;SDS011;16364;52.490;13.326;2023-02-01T08:11:26;13.10;;;3.77;;
29380;SDS011;16364;52.490;13.326;2023-02-01T08:13:51;21.23;;;4.27;;
29380;SDS011;16364;52.490;13.326;2023-02-01T08:16:17;7.50;;;3.27;;
29380;SDS011;16364;52.490;13.326;2023-02-01T08:18:43;11.90;;;3.23;;
29380;SDS011;16364;52.490;13.326;2023-02-01T08:21:09;13.47;;;3.80;;
29380;SDS011;16364;52.490;13.326;2023-02-01T08:23:35;10.73;;;4.13;;
29380;SDS011;16364;52.490;13.326;2023-02-01T08:26:05;12.77;;;3.60;;
29380;SDS011;16364;52.490;13.326;2023-02-01T08:28:30;6.40;;;3.70;;
29380;SDS011;16364;52.490;13.326;2023-02-01T08:30:55;8.80;;;3.50;;
29380;SDS011;16364;52.490;13.326;2023-02-01T08:33:20;10.07;;;3.87;;
29380;SDS011;16364;52.490;13.326;2023-02-01T08:35:46;9.00;;;3.60;;
29380;SDS011;16364;52.490;13.326;2023-02-01T08:38:12;10.20;;;4.77;;
29380;SDS011;16364;52.490;13.326;2023-02-01T08:40:37;7.77;;;3.70;;
29380;SDS011;16364;52.490;13.326;2023-02-01T08:43:02;12.53;;;4.40;;
29380;SDS011;16364;52.490;13.326;2023-02-01T08:45:28;7.97;;;3.80;;
29380;SDS011;16364;52.490;13.326;2023-02-01T08:47:55;8.70;;;3.63;;
29380;SDS011;16364;52.490;13.326;2023-02-01T08:50:21;10.30;;;3.50;;
29380;SDS011;16364;52.490;13.326;2023-02-01T08:52:46;9.47;;;4.57;;
29380;SDS011;16364;52.490;13.326;2023-02-01T08:55:12;11.23;;;2.90;;
29380;SDS011;16364;52.490;13.326;2023-02-01T08:57:38;11.23;;;3.70;;
29380;SDS011;16364;52.490;13.326;2023-02-01T09:00:04;5.03;;;2.13;;
29380;SDS011;16364;52.490;13.326;2023-02-01T09:02:29;5.60;;;2.53;;
29380;SDS011;16364;52.490;13.326;2023-02-01T09:04:55;3.97;;;2.10;;
29380;SDS011;16364;52.490;13.326;2023-02-01T09:07:20;3.23;;;2.20;;
29380;SDS011;16364;52.490;13.326;2023-02-01T09:09:45;4.40;;;1.90;;
29380;SDS011;16364;52.490;13.326;2023-02-01T09:12:11;5.93;;;1.73;;
29380;SDS011;16364;52.490;13.326;2023-02-01T09:14:36;5.87;;;2.83;;
29380;SDS011;16364;52.490;13.326;2023-02-01T09:17:01;6.20;;;2.47;;
29380;SDS011;16364;52.490;13.326;2023-02-01T09:19:27;4.57;;;2.10;;
29380;SDS011;16364;52.490;13.326;2023-02-01T09:21:52;6.33;;;1.87;;
29380;SDS011;16364;52.490;13.326;2023-02-01T09:24:17;3.17;;;1.97;;
29380;SDS011;16364;52.490;13.326;2023-02-01T09:26:42;4.03;;;1.83;;
29380;SDS011;16364;52.490;13.326;2023-02-01T09:29:08;3.80;;;1.53;;
29380;SDS011;16364;52.490;13.326;2023-02-01T09:31:36;5.67;;;1.80;;
29380;SDS011;16364;52.490;13.326;2023-02-01T09:34:02;2.03;;;1.50;;
29380;SDS011;16364;52.490;13.326;2023-02-01T09:36:28;1.40;;;1.30;;
29380;SDS011;16364;52.490;13.326;2023-02-01T09:38:53;2.50;;;1.70;;
29380;SDS011;16364;52.490;13.326;2023-02-01T09:46:57;8.03;;;1.40;;
29380;SDS011;16364;52.490;13.326;2023-02-01T09:49:27;1.23;;;1.13;;
29380;SDS011;16364;52.490;13.326;2023-02-01T09:51:53;2.23;;;1.07;;
29380;SDS011;16364;52.490;13.326;2023-02-01T09:54:22;1.77;;;1.10;;
29380;SDS011;16364;52.490;13.326;2023-02-01T09:59:23;4.20;;;1.20;;
29380;SDS011;16364;52.490;13.326;2023-02-01T10:01:51;3.50;;;1.27;;
29380;SDS011;16364;52.490;13.326;2023-02-01T10:04:16;4.37;;;1.70;;
29380;SDS011;16364;52.490;13.326;2023-02-01T10:09:30;1.23;;;0.90;;
29380;SDS011;16364;52.490;13.326;2023-02-01T10:17:08;1.33;;;1.20;;
29380;SDS011;16364;52.490;13.326;2023-02-01T10:19:57;5.10;;;1.50;;
29380;SDS011;16364;52.490;13.326;2023-02-01T10:25:23;1.77;;;1.30;;
29380;SDS011;16364;52.490;13.326;2023-02-01T10:27:51;2.27;;;1.73;;
29380;SDS011;16364;52.490;13.326;2023-02-01T10:30:20;15.77;;;2.97;;
29380;SDS011;16364;52.490;13.326;2023-02-01T10:32:47;5.47;;;1.20;;
29380;SDS011;16364;52.490;13.326;2023-02-01T10:35:17;2.37;;;1.40;;
29380;SDS011;16364;52.490;13.326;2023-02-01T10:37:43;1.97;;;1.20;;
29380;SDS011;16364;52.490;13.326;2023-02-01T10:40:17;6.53;;;2.33;;
29380;SDS011;16364;52.490;13.326;2023-02-01T10:42:44;4.77;;;1.30;;
29380;SDS011;16364;52.490;13.326;2023-02-01T10:45:16;5.27;;;1.13;;
29380;SDS011;16364;52.490;13.326;2023-02-01T10:47:42;2.00;;;1.30;;
29380;SDS011;16364;52.490;13.326;2023-02-01T10:52:39;4.03;;;1.40;;
29380;SDS011;16364;52.490;13.326;2023-02-01T10:57:59;5.87;;;1.80;;
29380;SDS011;16364;52.490;13.326;2023-02-01T11:00:25;6.50;;;1.57;;
29380;SDS011;16364;52.490;13.326;2023-02-01T11:02:51;4.40;;;1.53;;
29380;SDS011;16364;52.490;13.326;2023-02-01T11:05:17;3.13;;;1.47;;
29380;SDS011;16364;52.490;13.326;2023-02-01T11:07:50;3.90;;;1.70;;
29380;SDS011;16364;52.490;13.326;2023-02-01T11:10:39;11.97;;;1.53;;
29380;SDS011;16364;52.490;13.326;2023-02-01T11:13:08;5.53;;;1.60;;
29380;SDS011;16364;52.490;13.326;2023-02-01T11:15:36;3.70;;;1.83;;
29380;SDS011;16364;52.490;13.326;2023-02-01T11:18:12;4.23;;;1.83;;
29380;SDS011;16364;52.490;13.326;2023-02-01T11:20:38;3.50;;;2.00;;
29380;SDS011;16364;52.490;13.326;2023-02-01T11:23:14;8.93;;;1.73;;
29380;SDS011;16364;52.490;13.326;2023-02-01T11:25:40;4.27;;;1.80;;
29380;SDS011;16364;52.490;13.326;2023-02-01T11:28:12;4.70;;;2.53;;
29380;SDS011;16364;52.490;13.326;2023-02-01T11:30:38;5.27;;;1.90;;
29380;SDS011;16364;52.490;13.326;2023-02-01T11:33:05;7.17;;;1.90;;
29380;SDS011;16364;52.490;13.326;2023-02-01T11:35:31;6.17;;;1.97;;
29380;SDS011;16364;52.490;13.326;2023-02-01T11:37:58;5.20;;;2.00;;
29380;SDS011;16364;52.490;13.326;2023-02-01T11:40:36;3.03;;;1.67;;
29380;SDS011;16364;52.490;13.326;2023-02-01T11:43:12;3.90;;;1.50;;
29380;SDS011;16364;52.490;13.326;2023-02-01T11:45:38;5.47;;;1.93;;
29380;SDS011;16364;52.490;13.326;2023-02-01T11:48:08;3.40;;;1.70;;
29380;SDS011;16364;52.490;13.326;2023-02-01T11:55:42;5.00;;;1.70;;
29380;SDS011;16364;52.490;13.326;2023-02-01T12:03:27;5.20;;;1.50;;
29380;SDS011;16364;52.490;13.326;2023-02-01T12:06:08;8.60;;;1.70;;
29380;SDS011;16364;52.490;13.326;2023-02-01T12:11:21;9.13;;;1.30;;
29380;SDS011;16364;52.490;13.326;2023-02-01T12:21:46;8.00;;;1.97;;
29380;SDS011;16364;52.490;13.326;2023-02-01T12:24:25;3.47;;;1.43;;
29380;SDS011;16364;52.490;13.326;2023-02-01T12:37:31;8.70;;;2.20;;
29380;SDS011;16364;52.490;13.326;2023-02-01T12:42:54;7.80;;;1.73;;
29380;SDS011;16364;52.490;13.326;2023-02-01T12:47:59;4.60;;;1.33;;
29380;SDS011;16364;52.490;13.326;2023-02-01T12:55:58;5.30;;;1.40;;
29380;SDS011;16364;52.490;13.326;2023-02-01T12:58:27;7.23;;;1.70;;
29380;SDS011;16364;52.490;13.326;2023-02-01T13:00:59;6.10;;;1.30;;
29380;SDS011;16364;52.490;13.326;2023-02-01T13:03:29;3.37;;;1.40;;
29380;SDS011;16364;52.490;13.326;2023-02-01T13:06:13;5.40;;;1.50;;
29380;SDS011;16364;52.490;13.326;2023-02-01T13:09:01;3.73;;;1.50;;
29380;SDS011;16364;52.490;13.326;2023-02-01T13:11:33;5.27;;;1.47;;
29380;SDS011;16364;52.490;13.326;2023-02-01T13:17:02;4.17;;;1.37;;
29380;SDS011;16364;52.490;13.326;2023-02-01T13:22:09;2.60;;;1.07;;
29380;SDS011;16364;52.490;13.326;2023-02-01T13:24:39;10.53;;;1.50;;
29380;SDS011;16364;52.490;13.326;2023-02-01T13:27:05;5.40;;;2.40;;
29380;SDS011;16364;52.490;13.326;2023-02-01T13:29:30;8.83;;;1.50;;
29380;SDS011;16364;52.490;13.326;2023-02-01T13:37:13;4.70;;;1.80;;
29380;SDS011;16364;52.490;13.326;2023-02-01T13:42:11;8.13;;;2.00;;
29380;SDS011;16364;52.490;13.326;2023-02-01T13:44:39;4.00;;;1.50;;
29380;SDS011;16364;52.490;13.326;2023-02-01T13:49:49;10.33;;;2.00;;
29380;SDS011;16364;52.490;13.326;2023-02-01T13:55:03;7.00;;;1.60;;
29380;SDS011;16364;52.490;13.326;2023-02-01T13:57:39;7.13;;;2.40;;
29380;SDS011;16364;52.490;13.326;2023-02-01T14:00:22;6.20;;;1.90;;
29380;SDS011;16364;52.490;13.326;2023-02-01T14:02:49;5.10;;;2.07;;
29380;SDS011;16364;52.490;13.326;2023-02-01T14:10:48;17.03;;;2.00;;
29380;SDS011;16364;52.490;13.326;2023-02-01T14:23:38;5.93;;;2.00;;
29380;SDS011;16364;52.490;13.326;2023-02-01T14:26:05;5.90;;;2.73;;
29380;SDS011;16364;52.490;13.326;2023-02-01T14:28:32;4.60;;;1.90;;
29380;SDS011;16364;52.490;13.326;2023-02-01T14:30:57;11.20;;;2.30;;
29380;SDS011;16364;52.490;13.326;2023-02-01T14:33:24;7.90;;;2.20;;
29380;SDS011;16364;52.490;13.326;2023-02-01T14:38:29;6.20;;;2.47;;
29380;SDS011;16364;52.490;13.326;2023-02-01T14:41:10;3.13;;;2.20;;
29380;SDS011;16364;52.490;13.326;2023-02-01T14:43:59;12.73;;;1.90;;
29380;SDS011;16364;52.490;13.326;2023-02-01T14:49:20;14.30;;;3.03;;
29380;SDS011;16364;52.490;13.326;2023-02-01T14:51:45;6.77;;;2.43;;
29380;SDS011;16364;52.490;13.326;2023-02-01T14:54:11;4.40;;;2.00;;
29380;SDS011;16364;52.490;13.326;2023-02-01T14:56:37;10.00;;;1.80;;
29380;SDS011;16364;52.490;13.326;2023-02-01T14:59:07;8.13;;;2.10;;
29380;SDS011;16364;52.490;13.326;2023-02-01T15:01:35;8.20;;;2.27;;
29380;SDS011;16364;52.490;13.326;2023-02-01T15:04:09;7.57;;;2.20;;
29380;SDS011;16364;52.490;13.326;2023-02-01T15:06:42;11.27;;;3.33;;
29380;SDS011;16364;52.490;13.326;2023-02-01T15:09:28;8.40;;;2.00;;
29380;SDS011;16364;52.490;13.326;2023-02-01T15:17:33;1.90;;;1.30;;
29380;SDS011;16364;52.490;13.326;2023-02-01T15:20:03;7.80;;;1.87;;
29380;SDS011;16364;52.490;13.326;2023-02-01T15:22:31;4.77;;;1.40;;
29380;SDS011;16364;52.490;13.326;2023-02-01T15:24:59;1.50;;;1.30;;
29380;SDS011;16364;52.490;13.326;2023-02-01T15:27:25;4.60;;;1.70;;
29380;SDS011;16364;52.490;13.326;2023-02-01T15:29:50;8.80;;;1.50;;
29380;SDS011;16364;52.490;13.326;2023-02-01T15:32:32;2.53;;;1.57;;
29380;SDS011;16364;52.490;13.326;2023-02-01T15:34:57;2.07;;;1.83;;
29380;SDS011;16364;52.490;13.326;2023-02-01T15:37:23;1.67;;;1.20;;
29380;SDS011;16364;52.490;13.326;2023-02-01T15:42:32;1.93;;;1.40;;
29380;SDS011;16364;52.490;13.326;2023-02-01T15:44:58;3.20;;;1.30;;
29380;SDS011;16364;52.490;13.326;2023-02-01T15:47:24;1.30;;;1.20;;
29380;SDS011;16364;52.490;13.326;2023-02-01T15:49:51;1.60;;;1.50;;
29380;SDS011;16364;52.490;13.326;2023-02-01T15:52:20;4.10;;;1.50;;
29380;SDS011;16364;52.490;13.326;2023-02-01T15:54:47;1.30;;;1.13;;
29380;SDS011;16364;52.490;13.326;2023-02-01T15:57:18;1.70;;;1.50;;
29380;SDS011;16364;52.490;13.326;2023-02-01T15:59:44;1.87;;;1.63;;
29380;SDS011;16364;52.490;13.326;2023-02-01T16:02:32;1.50;;;1.40;;
29380;SDS011;16364;52.490;13.326;2023-02-01T16:04:58;1.43;;;1.33;;
29380;SDS011;16364;52.490;13.326;2023-02-01T16:07:27;2.63;;;1.40;;
29380;SDS011;16364;52.490;13.326;2023-02-01T16:09:54;1.50;;;1.40;;
29380;SDS011;16364;52.490;13.326;2023-02-01T16:13:05;1.67;;;1.50;;
29380;SDS011;16364;52.490;13.326;2023-02-01T16:15:06;2.07;;;1.60;;
29380;SDS011;16364;52.490;13.326;2023-02-01T16:17:31;1.80;;;1.40;;
29380;SDS011;16364;52.490;13.326;2023-02-01T16:19:56;1.20;;;1.10;;
29380;SDS011;16364;52.490;13.326;2023-02-01T16:22:22;1.00;;;0.90;;
29380;SDS011;16364;52.490;13.326;2023-02-01T16:24:48;1.20;;;0.87;;
29380;SDS011;16364;52.490;13.326;2023-02-01T16:27:13;0.87;;;0.70;;
29380;SDS011;16364;52.490;13.326;2023-02-01T16:29:38;1.23;;;1.10;;
29380;SDS011;16364;52.490;13.326;2023-02-01T16:32:04;0.80;;;0.80;;
29380;SDS011;16364;52.490;13.326;2023-02-01T16:34:30;2.20;;;1.00;;
29380;SDS011;16364;52.490;13.326;2023-02-01T16:36:55;1.23;;;1.03;;
29380;SDS011;16364;52.490;13.326;2023-02-01T16:39:22;0.80;;;0.80;;
29380;SDS011;16364;52.490;13.326;2023-02-01T16:41:47;0.87;;;0.87;;
29380;SDS011;16364;52.490;13.326;2023-02-01T16:44:12;1.47;;;0.83;;
29380;SDS011;16364;52.490;13.326;2023-02-01T16:46:41;0.90;;;0.70;;
29380;SDS011;16364;52.490;13.326;2023-02-01T16:49:20;1.33;;;0.90;;
29380;SDS011;16364;52.490;13.326;2023-02-01T16:51:45;1.83;;;0.80;;
29380;SDS011;16364;52.490;13.326;2023-02-01T16:54:12;4.80;;;0.73;;
29380;SDS011;16364;52.490;13.326;2023-02-01T16:56:37;0.80;;;0.70;;
29380;SDS011;16364;52.490;13.326;2023-02-01T16:59:05;1.10;;;0.80;;